Anaheim, CA (92801)

6:05 AM PDT on July 22, 2017 (GMT -0700)
Orangethorpe/Brookhurst | | Change Station

Elev 125 ft 33.86 °N, 117.95 °W | Updated 49 seconds ago

Overcast
Overcast
69.4 °F
Feels Like 69.4 °F
N
2.0
Wind Variable Wind from SE

Today
High -- | Low -- °F
--% Chance of Precip.
Yesterday
High -- | Low -- °F
Precip. -- in
Pressure 29.89 in
Visibility 9.0 miles
Clouds Overcast 1400 ft
Dew Point 63 °F
Humidity 81%
Rainfall 0.00 in
Snow Depth Not available.
5:56 AM 7:59 PM
Waning Crescent, 1% visible
METAR KFUL 221253Z 13003KT 9SM OVC014 21/18 A2989 RMK AO2 SLP121 T02110183 $
Pressure 29.89 in
Visibility 9.0 miles
Clouds Overcast 1400 ft
Dew Point 63 °F
Humidity 81%
Rainfall 0.00 in
Snow Depth Not available.
5:56 AM 7:59 PM
Waning Crescent, 1% visible
METAR KFUL 221253Z 13003KT 9SM OVC014 21/18 A2989 RMK AO2 SLP121 T02110183 $

Get Severe Weather Alerts

Thanks for signing up!

Be on the lookout for a verification email in your inbox.

You'll start receiving the daily forecast at 6 AM.

×

10-Day Weather Forecast

Almanac

Astronomy

Jul. 22, 2017 Rise Set
Actual Time
Civil Twilight
Nautical Twilight
Astronomical Twilight
Moon
Length of Visible Light
Length of Day
Tomorrow will be .
, % of the Moon is Illuminated

Today's Extremes

State Highs State Lows

Community

WunderPhotos

Category 6

Welcome to Category 6. This is the collective home for Weather Underground's featured writeups by Dr. Jeff Masters (right), Bob Henson (left), Chris Burt, and other regular contributors.

Nearby

Air Quality

  Air Quality AQ Index Pollutant
Not available.

Snow Depth

Station Depth Elevation

Earthquake Activity

City Distance Mag. Time & Date
Minimum magnitude displayed is 2.5.

Coastal Water Temperatures

Place Temperature

Stations

Nearby Weather Stations

Station Location Temp. Windchill Dew Point Humidity Wind Precip. Elev Updated Type
                   

Watches & Warnings

There are currently no watches in effect.